Guadalupe Mountains Natl Park, Texas
Current Conditions -  °F | °C
As of 5:19 PM on Monday 20 Oct 2014 (Local Time) from KGDP Reporting Station
Few Clouds Few Clouds  
Wind Chill: 59°   Ceiling: Unl
Heat Index: 59°   Visibility: 7mi
Dew Point: 54°   Wind: 18mph
Humidity: 83%   Direction: 50°NE
Pressure: 30.13"   Gusts: NA
Location:  31.92°N, 104.92°W
Report Text: KGDP 202219Z AUTO 05016KT 7SM FEW009 FEW015 15/12 A3013 RMK AO2 T01500122
Loading
Personal Weather Stations






























Interactive Weather Map
Tropical Storm Tracking
New forecast layout! Learn more

10-Day Weather Forecast

Advertisements
Track Severe Weather on mobile